Time;durP1;ratioP1;P1;durP2;ratioP2;P2;SDS_P1;SDS_P2;PMS_P1;PMS_P2;Temp;Humidity;BMP_temperature;BMP_pressure;BME280_temperature;BME280_humidity;BME280_pressure;Samples;Min_cycle;Max_cycle;Signal;HPM_P1;HPM_P2
2021/09/18 11:15:13;;;;;;;23.40;17.70;;;23.20;99.90;;;25.43;55.71;100674.22;6268466;22;20075;-83
2021/09/18 11:17:44;;;;;;;21.33;16.60;;;23.30;99.90;;;25.22;56.69;100670.00;6250481;22;20416;-86
2021/09/18 11:20:21;;;;;;;19.20;14.98;;;23.30;99.90;;;25.34;56.23;100672.06;6279883;22;20067;-86
2021/09/18 11:22:56;;;;;;;16.50;12.80;;;23.30;99.90;;;25.87;54.21;100680.91;6249557;22;20007;-85
2021/09/18 11:25:44;;;;;;;17.33;13.93;;;23.70;99.90;;;26.13;53.84;100677.50;6248298;23;20062;-89
2021/09/18 11:28:14;;;;;;;20.50;15.38;;;23.90;99.90;;;26.46;51.88;100665.66;6220847;23;20019;-86
2021/09/18 11:30:52;;;;;;;19.38;15.60;;;24.30;99.90;;;26.61;50.54;100658.13;6222555;22;20378;-83
2021/09/18 11:33:24;;;;;;;16.35;13.00;;;24.60;99.90;;;26.58;49.54;100665.63;6222312;23;20488;-88
2021/09/18 11:37:24;;;;;;;16.90;13.23;;;24.80;99.90;;;26.80;47.23;100668.44;6227376;23;20098;-89
2021/09/18 14:49:28;;;;;;;6.93;2.92;;;20.40;99.90;;;21.84;59.01;100553.03;6110127;22;2049499;-88
2021/09/18 14:51:57;;;;;;;4.70;2.70;;;20.50;99.90;;;21.99;58.43;100562.13;6163496;23;20013;-86
2021/09/18 14:54:40;;;;;;;7.75;3.33;;;20.60;99.90;;;21.90;58.17;100559.84;6116244;22;20020;-87
2021/09/18 14:57:05;;;;;;;8.77;3.90;;;20.50;99.90;;;21.97;57.94;100544.69;6201273;23;20005;-87
2021/09/18 14:59:31;;;;;;;6.60;4.10;;;20.60;99.90;;;21.96;57.38;100551.63;6233161;23;20032;-86
2021/09/18 15:01:58;;;;;;;6.70;3.22;;;20.60;99.90;;;21.99;57.85;100545.06;6222468;23;20012;-83
2021/09/18 15:04:24;;;;;;;5.43;3.15;;;20.60;99.90;;;21.94;57.63;100554.91;6244366;23;20008;-84
2021/09/18 15:06:50;;;;;;;4.03;3.22;;;20.50;99.90;;;21.75;57.83;100549.97;6216974;23;20074;-87
2021/09/18 15:09:16;;;;;;;5.03;3.40;;;20.40;99.90;;;21.76;59.57;100553.63;6217873;23;20008;-85
2021/09/18 15:11:42;;;;;;;4.75;3.15;;;20.40;99.90;;;21.67;59.51;100550.56;6216734;23;20423;-87
2021/09/18 15:14:08;;;;;;;3.90;2.90;;;20.30;99.90;;;21.71;59.23;100554.94;6215741;23;20039;-82
2021/09/18 15:16:34;;;;;;;6.63;3.03;;;20.30;99.90;;;21.67;60.04;100545.69;6216146;23;20005;-84
2021/09/18 15:19:02;;;;;;;4.47;2.67;;;20.30;99.90;;;21.54;59.79;100542.66;6216595;23;20017;-88
2021/09/18 15:21:31;;;;;;;5.40;2.85;;;20.20;99.90;;;21.55;58.51;100543.47;6215992;23;20018;-87
2021/09/18 15:23:57;;;;;;;5.72;3.70;;;20.30;99.90;;;21.38;59.53;100551.09;6242345;23;20036;-85
2021/09/18 15:26:24;;;;;;;4.22;2.50;;;20.20;99.90;;;21.38;59.97;100545.41;6218006;23;20004;-85
2021/09/18 15:28:50;;;;;;;4.40;3.38;;;20.10;99.90;;;21.28;59.22;100539.94;6216529;23;20004;-86
2021/09/18 15:31:16;;;;;;;5.55;3.63;;;20.00;99.90;;;21.16;59.10;100540.56;6242390;23;20013;-83
2021/09/18 15:33:42;;;;;;;5.95;3.83;;;19.90;99.90;;;21.04;59.81;100542.75;6216366;23;20008;-85
2021/09/18 15:36:12;;;;;;;5.38;3.58;;;19.90;99.90;;;21.10;58.98;100547.97;6216733;23;20005;-84
2021/09/18 15:38:40;;;;;;;4.20;2.88;;;19.70;99.90;;;21.01;59.71;100542.81;6216573;23;20009;-86
2021/09/18 15:41:14;;;;;;;6.40;3.03;;;19.80;99.90;;;20.94;59.22;100537.25;6216033;23;20001;-85
2021/09/18 15:43:43;;;;;;;4.13;2.55;;;19.70;99.90;;;20.92;59.81;100534.06;6216906;23;20005;-84
2021/09/18 15:46:10;;;;;;;5.05;2.30;;;19.60;99.90;;;20.86;61.49;100542.25;6216497;23;20020;-85
2021/09/18 15:48:38;;;;;;;4.93;2.70;;;19.60;99.90;;;20.77;60.56;100529.84;6217471;23;20000;-84
2021/09/18 15:51:08;;;;;;;7.55;2.75;;;19.50;99.90;;;20.67;60.81;100528.00;6217024;23;20008;-86
2021/09/18 15:53:34;;;;;;;3.47;2.45;;;19.50;99.90;;;20.63;60.69;100536.56;6242718;23;20004;-88
2021/09/18 15:56:00;;;;;;;4.10;2.15;;;19.40;99.90;;;20.59;61.13;100543.50;6218313;23;20162;-84
2021/09/18 15:58:26;;;;;;;5.75;2.83;;;19.30;99.90;;;20.53;60.48;100546.03;6218110;23;20415;-85
2021/09/18 16:00:53;;;;;;;4.43;2.55;;;19.40;99.90;;;20.49;61.23;100533.91;6217929;23;20004;-85
2021/09/18 16:03:20;;;;;;;6.28;2.72;;;19.30;99.90;;;20.40;61.80;100545.00;6220773;23;20026;-85
2021/09/18 16:05:45;;;;;;;4.63;2.70;;;19.20;99.90;;;20.40;61.65;100530.81;6220918;23;20008;-84
2021/09/18 16:08:12;;;;;;;5.68;3.10;;;19.20;99.90;;;20.43;61.36;100547.78;6244471;23;20007;-85
2021/09/18 16:10:39;;;;;;;5.47;2.60;;;19.20;99.90;;;20.44;61.05;100542.94;6218558;23;20008;-83
2021/09/18 16:13:09;;;;;;;4.95;2.40;;;19.20;99.90;;;20.40;60.93;100540.13;6219312;23;20015;-85
2021/09/18 16:15:36;;;;;;;4.00;2.40;;;19.20;99.90;;;20.37;61.29;100545.88;6219035;23;20013;-86
2021/09/18 16:18:04;;;;;;;6.38;2.33;;;19.10;99.90;;;20.25;61.91;100547.22;6218861;23;20070;-84
2021/09/18 16:20:31;;;;;;;5.28;2.70;;;19.00;99.90;;;20.22;61.19;100541.59;6218828;23;20503;-85
2021/09/18 16:22:59;;;;;;;3.92;2.60;;;19.00;99.90;;;20.15;61.79;100536.81;6221606;23;20001;-84
2021/09/18 16:25:25;;;;;;;3.92;1.98;;;18.90;99.90;;;20.05;61.78;100528.47;6220404;23;20004;-86
2021/09/18 16:27:51;;;;;;;3.83;2.15;;;18.80;99.90;;;20.04;61.86;100546.69;6245726;23;20119;-85
2021/09/18 16:30:17;;;;;;;4.82;2.42;;;18.80;99.90;;;19.95;62.19;100535.88;6234551;23;19997;-84
2021/09/18 16:32:43;;;;;;;4.60;2.33;;;18.80;99.90;;;19.91;62.25;100533.09;6238730;23;20061;-86
2021/09/18 16:35:13;;;;;;;2.97;2.08;;;18.70;99.90;;;19.94;61.96;100532.22;6239659;22;20065;-83
2021/09/18 16:37:40;;;;;;;3.90;2.00;;;18.70;99.90;;;19.86;61.92;100525.06;6260924;23;20101;-86
2021/09/18 16:40:11;;;;;;;5.68;2.55;;;18.70;99.90;;;19.87;61.82;100526.66;6258033;23;20012;-87
2021/09/18 16:42:37;;;;;;;5.32;2.60;;;18.60;99.90;;;19.80;62.06;100534.47;6226995;23;20284;-87
2021/09/18 16:45:07;;;;;;;2.90;1.58;;;18.60;99.90;;;19.73;62.50;100537.38;6219291;23;20103;-84
2021/09/18 16:47:34;;;;;;;2.28;1.60;;;18.60;99.90;;;19.73;62.84;100535.34;6219163;23;20012;-87
2021/09/18 16:50:00;;;;;;;4.22;1.92;;;18.60;99.90;;;19.64;63.11;100532.22;6218430;23;20012;-83
2021/09/18 16:52:31;;;;;;;4.47;1.52;;;18.50;99.90;;;19.60;63.17;100536.31;6241908;23;20106;-84
2021/09/18 16:54:59;;;;;;;5.50;2.20;;;18.40;99.90;;;19.49;63.87;100535.66;6218418;23;20075;-85
2021/09/18 16:57:29;;;;;;;5.85;1.98;;;18.30;99.90;;;19.38;64.17;100532.88;6220858;23;20088;-84
2021/09/18 16:59:55;;;;;;;4.13;1.90;;;18.30;99.90;;;19.37;64.33;100528.44;6219134;23;20019;-84
2021/09/18 17:02:21;;;;;;;3.42;1.80;;;18.20;99.90;;;19.28;65.25;100525.31;6218696;23;20009;-83
2021/09/18 17:04:47;;;;;;;6.32;2.60;;;18.20;99.90;;;19.17;65.64;100524.63;6217382;23;20012;-83
2021/09/18 17:07:14;;;;;;;3.92;1.98;;;18.10;99.90;;;19.05;66.08;100523.09;6244127;23;20029;-85
2021/09/18 17:09:43;;;;;;;5.25;2.70;;;17.90;99.90;;;18.94;66.38;100534.50;6219397;23;20403;-84
2021/09/18 17:12:11;;;;;;;4.40;3.30;;;17.80;99.90;;;18.82;66.99;100520.88;6246417;23;20008;-84
2021/09/18 17:14:37;;;;;;;9.98;3.28;;;17.80;99.90;;;18.78;67.47;100539.13;6222592;23;20036;-85
2021/09/18 17:17:03;;;;;;;6.85;3.30;;;17.70;99.90;;;18.68;68.03;100537.97;6221811;23;20016;-85
2021/09/18 17:19:29;;;;;;;4.55;2.50;;;17.60;99.90;;;18.65;68.27;100532.34;6220353;23;20446;-85
2021/09/18 17:21:55;;;;;;;3.55;2.35;;;17.50;99.90;;;18.62;68.01;100533.19;6232582;23;20004;-86
2021/09/18 17:24:22;;;;;;;3.47;2.10;;;17.60;99.90;;;18.59;68.12;100531.97;6231728;23;20008;-86
2021/09/18 17:26:47;;;;;;;2.75;1.88;;;17.50;99.90;;;18.56;68.69;100541.28;6220716;23;20033;-86
2021/09/18 17:29:13;;;;;;;3.28;1.75;;;17.40;99.90;;;18.50;68.56;100528.81;6219906;23;20001;-84
2021/09/18 17:31:39;;;;;;;5.10;2.20;;;17.40;99.90;;;18.42;69.08;100541.38;6219549;23;20009;-85
2021/09/18 17:34:06;;;;;;;3.22;2.05;;;17.30;99.90;;;18.34;69.78;100534.94;6220118;23;20312;-86
2021/09/18 17:36:32;;;;;;;4.47;2.10;;;17.30;99.90;;;18.32;69.48;100533.75;6223774;23;20013;-84
2021/09/18 17:38:58;;;;;;;4.30;2.20;;;17.20;99.90;;;18.30;69.60;100531.31;6221406;23;20024;-86
2021/09/18 17:41:24;;;;;;;5.20;2.40;;;17.20;99.90;;;18.24;69.93;100535.00;6220508;23;20524;-85
2021/09/18 17:43:50;;;;;;;4.63;2.80;;;17.10;99.90;;;18.14;70.46;100533.06;6244521;23;20005;-85
2021/09/18 17:46:17;;;;;;;3.97;2.42;;;17.10;99.90;;;18.05;71.18;100530.66;6219254;23;20390;-85
2021/09/18 17:48:45;;;;;;;5.10;2.90;;;17.00;99.90;;;17.95;71.68;100533.56;6243747;23;20062;-84
2021/09/18 17:51:11;;;;;;;4.82;2.80;;;16.80;99.90;;;17.94;72.17;100531.94;6217735;23;20092;-84
2021/09/18 17:53:37;;;;;;;4.57;2.85;;;16.80;99.90;;;17.85;72.83;100526.75;6242782;23;20099;-85
2021/09/18 17:56:13;;;;;;;4.25;2.83;;;16.80;99.90;;;17.79;73.29;100523.53;6216828;23;20005;-84
2021/09/18 17:58:39;;;;;;;4.28;2.20;;;16.70;99.90;;;17.68;73.83;100525.59;6217183;23;20008;-84
2021/09/18 18:01:06;;;;;;;5.07;2.47;;;16.60;99.90;;;17.60;73.98;100517.56;6216058;23;20453;-85
2021/09/18 18:03:32;;;;;;;4.63;2.85;;;16.60;99.90;;;17.58;74.31;100517.16;6241913;23;20087;-85
2021/09/18 18:05:59;;;;;;;5.35;3.15;;;16.50;99.90;;;17.52;74.84;100521.59;6241816;23;20011;-84
2021/09/18 18:08:26;;;;;;;7.28;3.47;;;16.50;99.90;;;17.52;74.74;100527.25;6216665;23;20009;-84
2021/09/18 18:10:56;;;;;;;7.00;3.28;;;16.40;99.90;;;17.54;74.76;100521.97;6214501;23;20072;-83
2021/09/18 18:13:22;;;;;;;7.55;3.60;;;16.40;99.90;;;17.50;74.91;100522.00;6241623;23;20040;-85
2021/09/18 18:15:48;;;;;;;6.60;3.45;;;16.50;99.90;;;17.49;74.99;100530.88;6216468;23;20091;-85
2021/09/18 18:18:15;;;;;;;7.57;3.88;;;16.40;99.90;;;17.55;74.63;100535.72;6215953;23;20009;-84
2021/09/18 18:20:42;;;;;;;7.53;3.78;;;16.40;99.90;;;17.46;75.14;100529.69;6215837;23;20017;-85
2021/09/18 18:23:13;;;;;;;5.82;3.25;;;16.30;99.90;;;17.52;75.20;100535.72;6241261;23;20012;-84
2021/09/18 18:25:40;;;;;;;3.85;2.30;;;16.40;99.90;;;17.56;75.42;100539.38;6216130;23;20008;-86
2021/09/18 18:28:07;;;;;;;4.35;3.10;;;16.50;99.90;;;17.55;75.90;100538.56;6216003;23;20422;-85
2021/09/18 18:30:35;;;;;;;5.70;3.13;;;16.40;99.90;;;17.53;76.22;100542.97;6240716;23;20053;-86
2021/09/18 18:33:03;;;;;;;3.70;2.30;;;16.40;99.90;;;17.46;76.45;100537.34;6216370;23;20186;-84
2021/09/18 18:35:31;;;;;;;5.00;3.00;;;16.30;99.90;;;17.42;77.08;100545.00;6215206;23;20012;-83
2021/09/18 18:37:57;;;;;;;6.47;3.28;;;16.30;99.90;;;17.35;77.18;100545.84;6216034;23;20308;-85
2021/09/18 18:40:23;;;;;;;5.85;3.50;;;16.20;99.90;;;17.28;77.98;100555.13;6215619;23;20013;-86
2021/09/18 18:42:50;;;;;;;5.55;3.10;;;16.10;99.90;;;17.12;79.02;100545.47;6241784;23;20011;-85
2021/09/18 18:45:16;;;;;;;7.38;3.88;;;16.00;99.90;;;17.06;79.77;100552.72;6216302;23;20005;-84
2021/09/18 18:47:43;;;;;;;6.05;3.50;;;16.00;99.90;;;17.07;79.65;100548.72;6215694;23;20091;-85
2021/09/18 18:50:12;;;;;;;4.65;3.03;;;16.00;99.90;;;17.08;80.27;100553.16;6215878;23;20016;-83
2021/09/18 18:52:40;;;;;;;4.70;2.67;;;16.10;99.90;;;17.04;80.80;100555.97;6214765;23;20028;-85
2021/09/18 18:55:08;;;;;;;5.07;3.05;;;16.00;99.90;;;16.99;81.45;100556.34;6215500;23;20004;-85
2021/09/18 18:57:34;;;;;;;5.35;2.70;;;15.90;99.90;;;16.91;81.49;100557.59;6215889;23;20021;-86
2021/09/18 18:59:59;;;;;;;5.10;2.60;;;15.90;99.90;;;16.83;82.53;100556.78;6216008;23;20043;-85
2021/09/18 19:02:25;;;;;;;5.20;3.10;;;15.80;99.90;;;16.77;82.84;100561.19;6215405;23;20454;-86
2021/09/18 19:04:51;;;;;;;3.50;2.20;;;15.70;99.90;;;16.70;83.78;100563.19;6216046;23;20087;-85
2021/09/18 19:07:17;;;;;;;5.60;3.10;;;15.60;99.90;;;16.68;83.96;100552.34;6215451;23;20064;-83
2021/09/18 19:09:46;;;;;;;4.28;2.70;;;15.70;99.90;;;16.72;83.96;100560.81;6241627;23;20044;-86
2021/09/18 19:12:12;;;;;;;5.75;2.63;;;15.70;99.90;;;16.74;84.14;100552.75;6215565;23;20008;-84
2021/09/18 19:14:50;;;;;;;5.65;2.65;;;15.60;99.90;;;16.75;84.52;100554.34;6217844;23;20004;-85
2021/09/18 19:17:17;;;;;;;4.53;3.15;;;15.70;99.90;;;16.76;84.33;100553.94;6215082;23;20005;-87
2021/09/18 19:19:43;;;;;;;5.43;3.30;;;15.70;99.90;;;16.81;84.37;100558.38;6215696;23;20012;-85
2021/09/18 19:22:10;;;;;;;4.00;2.50;;;15.70;99.90;;;16.79;84.55;100563.63;6215042;23;20366;-85
2021/09/18 19:24:36;;;;;;;5.60;2.35;;;15.70;99.90;;;16.72;84.97;100563.63;6241190;23;20001;-83
2021/09/18 19:27:02;;;;;;;4.47;2.63;;;15.60;99.90;;;16.63;85.56;100560.41;6217692;23;20043;-85
2021/09/18 19:29:28;;;;;;;3.95;2.13;;;15.50;99.90;;;16.56;85.94;100563.22;6216992;23;20005;-83
2021/09/18 19:31:54;;;;;;;3.90;2.33;;;15.50;99.90;;;16.51;86.40;100563.56;6218645;23;20004;-84
2021/09/18 19:34:20;;;;;;;4.90;2.60;;;15.50;99.90;;;16.47;86.98;100566.38;6216261;23;20084;-85
2021/09/18 19:36:46;;;;;;;4.30;2.55;;;15.40;99.90;;;16.39;87.90;100566.75;6216296;23;20015;-87
2021/09/18 19:39:12;;;;;;;4.20;2.63;;;15.30;99.90;;;16.33;88.45;100561.53;6216548;23;20304;-85
2021/09/18 19:41:40;;;;;;;3.85;2.55;;;15.30;99.90;;;16.34;88.38;100562.34;6215949;23;20008;-86
2021/09/18 19:44:05;;;;;;;5.55;3.10;;;15.40;99.90;;;16.37;88.67;100575.63;6231957;23;20004;-85
2021/09/18 19:46:31;;;;;;;3.10;2.40;;;15.30;99.90;;;16.29;89.09;100562.72;6230180;23;20058;-85
2021/09/18 19:48:57;;;;;;;4.18;2.50;;;15.30;99.90;;;16.27;89.77;100568.75;6216722;23;20450;-85
2021/09/18 19:51:23;;;;;;;6.05;2.70;;;15.20;99.90;;;16.25;89.98;100573.97;6220521;23;20011;-87
2021/09/18 19:53:50;;;;;;;4.38;2.35;;;15.20;99.90;;;16.21;90.46;100583.63;6246300;23;20069;-84
2021/09/18 19:56:16;;;;;;;5.90;2.40;;;15.20;99.90;;;16.23;89.99;100581.22;6220908;23;20019;-87
2021/09/18 19:58:42;;;;;;;4.70;3.13;;;15.20;99.90;;;16.17;90.61;100575.16;6245330;23;20139;-86
2021/09/18 20:01:09;;;;;;;6.43;3.22;;;15.10;99.90;;;16.15;90.87;100571.13;6220720;23;20089;-86
2021/09/18 20:03:35;;;;;;;2.67;2.00;;;15.10;99.90;;;16.00;91.70;100563.81;6247549;23;19996;-86
2021/09/18 20:06:01;;;;;;;2.75;2.20;;;15.00;99.90;;;16.00;91.44;100570.28;6246173;23;20107;-83
2021/09/18 20:08:27;;;;;;;2.42;2.05;;;14.90;99.90;;;15.92;92.38;100565.00;6247838;23;20004;-84
2021/09/18 20:10:53;;;;;;;2.58;2.17;;;14.90;99.90;;;15.87;92.88;100566.19;6247447;23;20083;-85
2021/09/18 20:13:19;;;;;;;6.28;2.88;;;14.80;99.90;;;15.88;92.89;100555.72;6244910;23;20008;-84
2021/09/18 20:15:45;;;;;;;4.38;2.88;;;14.80;99.90;;;15.84;93.32;100564.16;6219898;23;20008;-85
2021/09/18 20:18:11;;;;;;;2.80;2.22;;;14.80;99.90;;;15.82;93.10;100563.75;6219271;23;20378;-84
2021/09/18 20:20:37;;;;;;;3.40;2.55;;;14.70;99.90;;;15.78;93.15;100565.75;6220446;23;20011;-86
2021/09/18 20:23:03;;;;;;;4.38;2.30;;;14.60;99.90;;;15.71;93.19;100566.53;6244967;23;20014;-85
2021/09/18 20:25:29;;;;;;;3.20;2.70;;;14.60;99.90;;;15.66;94.27;100577.38;6244792;23;20104;-84
2021/09/18 20:27:55;;;;;;;5.25;2.63;;;14.60;99.90;;;15.61;94.43;100575.72;6244907;23;20068;-84
2021/09/18 20:30:21;;;;;;;3.60;2.70;;;14.50;99.90;;;15.61;95.44;100577.72;6219445;23;20016;-86
2021/09/18 20:32:48;;;;;;;5.93;3.30;;;14.50;99.90;;;15.53;95.60;100570.44;6222613;23;20004;-85
2021/09/18 20:35:14;;;;;;;5.35;2.63;;;14.40;99.90;;;15.56;95.36;100566.84;6220389;23;20004;-84
2021/09/18 20:37:40;;;;;;;3.42;2.95;;;14.40;99.90;;;15.56;95.38;100564.03;6220337;23;20066;-85
2021/09/18 20:40:08;;;;;;;3.88;2.50;;;14.50;99.90;;;15.56;95.42;100558.41;6246262;23;20012;-84
2021/09/18 20:42:35;;;;;;;4.10;3.13;;;14.40;99.90;;;15.53;95.87;100562.00;6220847;23;20418;-84
2021/09/18 20:45:04;;;;;;;6.70;3.97;;;14.30;99.90;;;15.45;96.30;100552.69;6221555;23;20012;-86
2021/09/18 20:47:31;;;;;;;7.85;4.50;;;14.30;99.90;;;15.48;96.41;100553.91;6248067;22;20004;-86
2021/09/18 20:50:07;;;;;;;9.73;5.00;;;14.30;99.90;;;15.45;96.51;100566.75;6248527;23;20012;-87
2021/09/18 20:52:34;;;;;;;9.35;4.88;;;14.30;99.90;;;15.42;96.64;100559.09;6246172;23;20016;-84
2021/09/18 20:55:00;;;;;;;6.75;4.35;;;14.30;99.90;;;15.38;96.78;100568.72;6220363;23;20091;-86
2021/09/18 20:57:26;;;;;;;6.95;4.88;;;14.20;99.90;;;15.35;97.22;100563.88;6246731;23;20020;-83
2021/09/18 20:59:52;;;;;;;10.02;4.82;;;14.20;99.90;;;15.26;98.11;100565.03;6245714;23;20009;-83
2021/09/18 21:04:46;;;;;;;6.93;4.80;;;14.10;99.90;;;15.15;98.07;100554.91;6258067;23;20395;-86
2021/09/18 21:07:12;;;;;;;6.00;4.25;;;14.10;99.90;;;15.10;98.88;100555.25;6220965;23;20011;-85
2021/09/18 21:09:39;;;;;;;6.60;4.80;;;14.00;99.90;;;15.08;99.42;100552.84;6220794;23;20004;-83
2021/09/18 21:12:10;;;;;;;8.68;5.45;;;14.00;99.90;;;15.11;99.67;100549.25;6248273;23;20007;-83
2021/09/18 21:14:36;;;;;;;7.07;4.60;;;14.00;99.90;;;15.15;99.26;100557.72;6220658;23;20152;-84
2021/09/18 21:17:03;;;;;;;6.25;4.90;;;14.00;99.90;;;15.11;99.78;100552.06;6221532;23;20000;-86
2021/09/18 21:19:29;;;;;;;5.97;4.68;;;14.00;99.90;;;15.10;99.44;100556.06;6246300;23;20401;-85
2021/09/18 21:21:55;;;;;;;7.88;4.70;;;14.00;99.90;;;15.06;99.62;100552.41;6221179;23;20055;-84
2021/09/18 21:24:21;;;;;;;8.48;5.18;;;14.00;99.90;;;15.02;100.00;100540.34;6221213;23;20004;-84
2021/09/18 21:26:47;;;;;;;5.60;4.25;;;14.00;99.90;;;15.05;100.00;100552.81;6220275;23;20054;-84
2021/09/18 21:29:14;;;;;;;8.02;4.32;;;14.00;99.90;;;15.07;100.00;100550.41;6221505;23;20032;-82
2021/09/18 21:31:40;;;;;;;6.50;4.03;;;14.00;99.90;;;15.02;100.00;100554.41;6245799;23;20044;-82
2021/09/18 21:34:07;;;;;;;5.70;4.13;;;13.90;99.90;;;14.95;100.00;100553.53;6220610;23;20012;-85
2021/09/18 21:36:34;;;;;;;3.67;3.38;;;13.90;99.90;;;14.87;100.00;100546.25;6220679;23;20007;-86
2021/09/18 21:39:02;;;;;;;5.65;4.22;;;13.80;99.90;;;14.87;100.00;100549.03;6248293;23;20106;-84
2021/09/18 21:41:28;;;;;;;6.90;3.97;;;13.80;99.90;;;14.87;100.00;100551.88;6246090;23;20012;-83
2021/09/18 21:43:54;;;;;;;4.45;4.00;;;13.80;99.90;;;14.86;100.00;100550.25;6246189;23;20004;-83
2021/09/18 21:46:20;;;;;;;4.10;3.70;;;13.80;99.90;;;14.78;100.00;100549.38;6221102;23;20004;-85
2021/09/18 21:48:46;;;;;;;5.25;3.63;;;13.60;99.90;;;14.76;100.00;100548.97;6245866;23;20000;-85
2021/09/18 21:51:12;;;;;;;5.32;4.03;;;13.60;99.90;;;14.67;100.00;100542.88;6245519;23;20012;-85
2021/09/18 21:53:39;;;;;;;4.25;3.33;;;13.60;99.90;;;14.63;100.00;100553.28;6221220;23;20004;-82
2021/09/18 21:56:05;;;;;;;4.65;4.07;;;13.60;99.90;;;14.58;100.00;100554.44;6248196;23;20050;-86
2021/09/18 21:58:31;;;;;;;4.78;3.63;;;13.50;99.90;;;14.52;100.00;100547.56;6221326;23;20012;-85
2021/09/18 22:01:18;;;;;;;6.10;3.65;;;13.50;99.90;;;14.47;100.00;100553.53;6220733;23;20456;-84
2021/09/18 22:03:50;;;;;;;8.20;3.45;;;13.50;99.90;;;14.41;100.00;100555.09;6222821;23;20004;-83
2021/09/18 22:06:17;;;;;;;4.55;3.60;;;13.40;99.90;;;14.40;100.00;100555.47;6239962;23;20003;-88
2021/09/18 22:08:45;;;;;;;5.05;4.55;;;13.40;99.90;;;14.40;100.00;100561.88;6225860;23;20115;-85
2021/09/18 22:11:11;;;;;;;5.60;4.10;;;13.30;99.90;;;14.37;100.00;100556.22;6219846;23;20019;-87
2021/09/18 22:13:38;;;;;;;5.38;4.20;;;13.30;99.90;;;14.40;100.00;100555.47;6220406;23;20008;-83
2021/09/18 22:16:05;;;;;;;5.28;4.35;;;13.30;99.90;;;14.44;100.00;100557.13;6248047;23;20090;-85
2021/09/18 22:18:32;;;;;;;5.55;4.90;;;13.30;99.90;;;14.43;100.00;100549.88;6221235;23;20019;-84
2021/09/18 22:21:00;;;;;;;6.40;3.95;;;13.30;99.90;;;14.43;100.00;100549.06;6221443;23;20015;-86
2021/09/18 22:23:26;;;;;;;6.57;4.78;;;13.40;99.90;;;14.45;100.00;100555.91;6246813;23;20015;-85
2021/09/18 22:25:52;;;;;;;7.15;4.45;;;13.40;99.90;;;14.43;100.00;100549.06;6226524;23;20038;-85
2021/09/18 22:28:19;;;;;;;5.80;4.55;;;13.30;99.90;;;14.45;100.00;100544.66;6231872;23;20003;-85
2021/09/18 22:30:45;;;;;;;5.70;4.20;;;13.30;99.90;;;14.38;100.00;100543.81;6231623;23;20016;-85
2021/09/18 22:33:10;;;;;;;4.47;3.72;;;13.40;99.90;;;14.41;100.00;100537.41;6254430;23;20453;-86
2021/09/18 22:35:36;;;;;;;6.18;4.00;;;13.30;99.90;;;14.38;100.00;100541.00;6222898;23;20008;-87
2021/09/18 22:38:03;;;;;;;5.30;4.22;;;13.40;99.90;;;14.45;100.00;100536.25;6221863;23;20016;-84
2021/09/18 22:40:32;;;;;;;4.88;3.78;;;13.40;99.90;;;14.51;100.00;100539.53;6220260;23;20012;-83
2021/09/18 22:42:58;;;;;;;4.43;3.60;;;13.40;99.90;;;14.46;100.00;100537.06;6219520;23;20000;-85
2021/09/18 22:45:24;;;;;;;5.50;3.95;;;13.40;99.90;;;14.44;100.00;100531.03;6220279;23;20026;-85
2021/09/18 22:47:50;;;;;;;4.85;3.88;;;13.40;99.90;;;14.40;100.00;100527.38;6222187;23;20004;-85
2021/09/18 22:50:16;;;;;;;4.15;3.25;;;13.40;99.90;;;14.35;100.00;100524.91;6248174;23;20350;-86
2021/09/18 22:52:42;;;;;;;3.90;3.03;;;13.30;99.90;;;14.34;100.00;100535.34;6219821;23;20019;-85
2021/09/18 22:55:09;;;;;;;4.07;3.20;;;13.30;99.90;;;14.31;100.00;100524.84;6244923;23;20376;-85
2021/09/18 22:57:36;;;;;;;3.83;3.10;;;13.20;99.90;;;14.27;100.00;100529.63;6218958;23;20008;-85
2021/09/18 23:00:06;;;;;;;4.45;3.28;;;13.20;99.90;;;14.23;100.00;100529.56;6223140;23;20373;-86
2021/09/18 23:02:32;;;;;;;6.55;3.03;;;13.20;99.90;;;14.19;100.00;100525.91;6222788;23;20056;-85
2021/09/18 23:04:58;;;;;;;3.25;2.80;;;13.10;99.90;;;14.15;100.00;100532.72;6221333;23;20087;-85
2021/09/18 23:07:25;;;;;;;3.92;2.75;;;13.00;99.90;;;14.07;100.00;100523.38;6219891;23;20004;-85
2021/09/18 23:09:51;;;;;;;3.72;2.70;;;13.00;99.90;;;13.98;100.00;100517.28;6219124;23;20043;-86
2021/09/18 23:12:18;;;;;;;4.78;3.30;;;12.90;99.90;;;13.99;100.00;100529.31;6219064;23;20035;-85
2021/09/18 23:14:44;;;;;;;3.40;3.10;;;12.90;99.90;;;13.94;100.00;100516.41;6244115;23;20066;-86
2021/09/18 23:17:10;;;;;;;4.20;3.13;;;12.90;99.90;;;13.91;100.00;100522.81;6219129;23;20015;-85
2021/09/18 23:19:37;;;;;;;6.75;3.95;;;12.80;99.90;;;13.88;100.00;100517.16;6219206;23;20023;-86
2021/09/18 23:22:03;;;;;;;6.15;4.70;;;12.80;99.90;;;13.88;100.00;100523.56;6246058;23;20008;-85
2021/09/18 23:24:29;;;;;;;5.72;4.25;;;12.80;99.90;;;13.87;100.00;100524.75;6218678;23;20008;-84
2021/09/18 23:26:57;;;;;;;4.85;4.30;;;12.80;99.90;;;13.83;100.00;100517.50;6218994;23;20008;-84
2021/09/18 23:29:30;;;;;;;4.97;4.10;;;12.70;99.90;;;13.86;100.00;100523.16;6218826;23;20502;-82
2021/09/18 23:31:57;;;;;;;5.60;4.20;;;12.80;99.90;;;13.86;100.00;100519.53;6218978;23;20040;-84
2021/09/18 23:34:23;;;;;;;4.85;4.20;;;12.70;99.90;;;13.79;100.00;100514.66;6219085;23;20008;-85
2021/09/18 23:36:49;;;;;;;5.93;4.47;;;12.70;99.90;;;13.80;100.00;100527.50;6244259;23;20431;-83
2021/09/18 23:39:14;;;;;;;6.55;4.70;;;12.70;99.90;;;13.72;100.00;100518.19;6243817;23;20012;-87
2021/09/18 23:41:41;;;;;;;5.97;5.10;;;12.70;99.90;;;13.69;100.00;100527.38;6245578;23;20008;-84
2021/09/18 23:44:07;;;;;;;6.28;4.90;;;12.70;99.90;;;13.68;100.00;100524.91;6219009;23;20004;-84
2021/09/18 23:46:34;;;;;;;7.57;5.50;;;12.70;99.90;;;13.66;100.00;100521.69;6218599;23;20385;-86
2021/09/18 23:49:00;;;;;;;6.18;5.43;;;12.60;99.90;;;13.66;100.00;100524.50;6219085;23;20091;-84
2021/09/18 23:51:26;;;;;;;5.55;4.75;;;12.60;99.90;;;13.62;100.00;100515.22;6243703;23;20403;-83
2021/09/18 23:53:53;;;;;;;6.05;5.35;;;12.50;99.90;;;13.67;100.00;100523.31;6244280;23;20016;-85
2021/09/18 23:56:19;;;;;;;6.90;5.85;;;12.60;99.90;;;13.59;100.00;100513.19;6219387;23;20431;-87
2021/09/18 23:58:46;;;;;;;6.15;5.40;;;12.60;99.90;;;13.64;100.00;100518.47;6219358;23;20008;-84
